createdAt,value
2023-06-26T00:07:46.284Z,8.75
2023-06-26T00:12:51.126Z,8.53
2023-06-26T00:17:53.833Z,9.32
2023-06-26T00:22:56.849Z,8.38
2023-06-26T00:28:01.045Z,8.73
2023-06-26T00:33:03.772Z,9.45
2023-06-26T00:38:08.276Z,8.40
2023-06-26T00:43:15.922Z,10.23
2023-06-26T00:48:19.567Z,10.63
2023-06-26T00:53:23.673Z,8.82
2023-06-26T00:58:28.208Z,9.73
2023-06-26T01:03:31.182Z,10.53
2023-06-26T01:08:34.083Z,9.93
2023-06-26T01:13:40.484Z,10.93
2023-06-26T01:18:43.879Z,9.03
2023-06-26T01:24:02.972Z,9.60
2023-06-26T01:29:11.386Z,9.95
2023-06-26T01:34:16.291Z,11.57
2023-06-26T01:39:20.788Z,10.43
2023-06-26T01:44:30.953Z,7.82
2023-06-26T01:49:47.274Z,11.23
2023-06-26T01:54:59.813Z,9.37
2023-06-26T02:00:05.339Z,9.98
2023-06-26T02:05:16.471Z,10.10
2023-06-26T02:10:19.810Z,10.17
2023-06-26T02:15:24.007Z,8.73
2023-06-26T02:20:27.914Z,9.43
2023-06-26T02:25:30.695Z,9.87
2023-06-26T02:30:34.932Z,8.83
2023-06-26T02:35:37.598Z,11.68
2023-06-26T02:40:40.561Z,11.70
2023-06-26T02:45:45.691Z,11.17
2023-06-26T02:50:48.671Z,14.45
2023-06-26T02:55:51.902Z,14.90
2023-06-26T03:00:56.346Z,18.23
2023-06-26T03:05:59.328Z,14.93
2023-06-26T03:11:03.250Z,12.77
2023-06-26T03:16:08.798Z,14.70
2023-06-26T03:21:13.520Z,14.10
2023-06-26T03:26:16.726Z,14.77
2023-06-26T03:31:23.061Z,17.05
2023-06-26T03:36:26.990Z,17.37
2023-06-26T03:41:30.146Z,13.95
2023-06-26T03:46:34.605Z,10.88
2023-06-26T03:51:37.511Z,11.57
2023-06-26T03:56:40.309Z,10.50
2023-06-26T04:01:44.532Z,11.40
2023-06-26T04:12:29.842Z,15.93
2023-06-26T04:23:19.953Z,13.88
2023-06-26T04:28:43.193Z,14.47
2023-06-26T04:34:39.746Z,11.50
2023-06-26T04:40:08.698Z,16.10
2023-06-26T04:45:30.583Z,22.10
2023-06-26T05:09:26.321Z,24.77
2023-06-26T05:14:57.211Z,18.27
2023-06-26T05:20:57.810Z,14.75
2023-06-26T05:26:50.272Z,20.17
2023-06-26T05:44:00.556Z,19.43
2023-06-26T05:49:30.003Z,16.98
2023-06-26T05:55:28.563Z,16.55
2023-06-26T06:06:00.235Z,15.37
2023-06-26T06:11:57.959Z,13.70
2023-06-26T06:17:09.112Z,17.70
2023-06-26T06:22:36.531Z,18.57
2023-06-26T06:34:01.288Z,13.40
2023-06-26T06:39:57.011Z,11.37
2023-06-26T06:45:06.718Z,9.57
2023-06-26T06:50:42.344Z,10.82
2023-06-26T06:56:09.516Z,11.50
2023-06-26T07:01:25.206Z,11.57
2023-06-26T07:07:05.817Z,13.57
2023-06-26T07:12:29.383Z,10.50
2023-06-26T07:18:34.832Z,11.73
2023-06-26T07:40:53.634Z,8.00
2023-06-26T07:46:16.185Z,8.63
2023-06-26T08:03:34.467Z,9.20
2023-06-26T08:09:16.695Z,6.68
2023-06-26T08:26:40.507Z,6.07
2023-06-26T08:32:01.239Z,5.53
2023-06-26T08:37:05.764Z,5.97
2023-06-26T08:42:35.009Z,7.47
2023-06-26T08:53:38.695Z,6.97
2023-06-26T08:59:22.840Z,7.07
2023-06-26T09:23:13.905Z,5.68
2023-06-26T09:29:06.467Z,7.23
2023-06-26T09:34:37.734Z,7.63
2023-06-26T09:52:26.356Z,7.57
2023-06-26T09:58:11.571Z,6.60
2023-06-26T10:03:23.838Z,6.63
2023-06-26T10:08:44.209Z,6.80
2023-06-26T10:33:09.701Z,7.32
2023-06-26T11:03:25.176Z,5.95
2023-06-26T11:08:46.764Z,6.95
2023-06-26T11:13:50.756Z,6.13
2023-06-26T11:19:00.426Z,5.70
2023-06-26T11:24:06.393Z,6.15
2023-06-26T11:29:10.654Z,6.97
2023-06-26T11:34:15.840Z,5.10
2023-06-26T11:39:22.588Z,7.53
2023-06-26T11:44:30.376Z,6.80
2023-06-26T11:55:07.004Z,5.82
2023-06-26T12:00:15.344Z,8.18
2023-06-26T12:05:21.824Z,6.20
2023-06-26T12:10:25.371Z,5.97
2023-06-26T12:15:32.863Z,6.25
2023-06-26T12:20:43.136Z,5.47
2023-06-26T12:25:45.928Z,5.20
2023-06-26T12:30:49.548Z,6.30
2023-06-26T12:35:54.011Z,5.88
2023-06-26T12:41:06.417Z,4.80
2023-06-26T12:46:09.728Z,7.20
2023-06-26T12:51:17.260Z,5.82
2023-06-26T12:56:20.459Z,5.27
2023-06-26T13:01:23.592Z,6.82
2023-06-26T13:06:28.153Z,5.50
2023-06-26T13:11:31.763Z,6.43
2023-06-26T13:16:35.204Z,5.90
2023-06-26T13:21:40.255Z,5.82
2023-06-26T13:26:43.428Z,6.03
2023-06-26T13:31:46.363Z,5.50
2023-06-26T13:36:50.980Z,7.63
2023-06-26T13:41:56.270Z,5.20
2023-06-26T13:47:02.895Z,5.60
2023-06-26T13:57:44.897Z,7.03
2023-06-26T14:02:54.331Z,4.97
2023-06-26T14:08:06.333Z,5.30
2023-06-26T14:13:19.485Z,6.03
2023-06-26T14:18:37.479Z,5.78
2023-06-26T14:29:15.713Z,7.20
2023-06-26T14:34:23.931Z,6.03
2023-06-26T14:39:39.543Z,5.60
2023-06-26T14:50:48.536Z,5.80
2023-06-26T14:56:06.285Z,5.80
2023-06-26T15:01:49.456Z,5.70
2023-06-26T15:07:08.560Z,5.50
2023-06-26T15:17:54.398Z,6.93
2023-06-26T15:23:09.231Z,5.78
2023-06-26T15:28:28.331Z,6.00
2023-06-26T15:33:49.230Z,5.83
2023-06-26T15:39:04.002Z,6.07
2023-06-26T15:44:17.834Z,5.90
2023-06-26T15:49:27.932Z,6.73
2023-06-26T15:54:36.563Z,5.70
2023-06-26T16:00:10.386Z,5.47
2023-06-26T16:05:28.551Z,5.60
2023-06-26T16:10:48.821Z,9.07
2023-06-26T16:21:27.748Z,5.35
2023-06-26T16:32:23.253Z,5.40
2023-06-26T16:38:00.920Z,6.18
2023-06-26T16:43:15.362Z,7.70
2023-06-26T16:48:42.861Z,6.77
2023-06-26T16:53:58.147Z,6.68
2023-06-26T16:59:24.624Z,5.43
2023-06-26T17:04:45.622Z,5.53
2023-06-26T17:09:55.925Z,6.90
2023-06-26T17:15:10.502Z,6.55
2023-06-26T17:20:27.109Z,7.47
2023-06-26T17:25:46.248Z,5.88
2023-06-26T17:31:09.804Z,6.47
2023-06-26T17:36:44.416Z,5.70
2023-06-26T17:41:57.827Z,6.53
2023-06-26T17:47:18.866Z,6.50
2023-06-26T17:52:53.446Z,7.03
2023-06-26T17:58:33.103Z,6.37
2023-06-26T18:03:45.251Z,10.48
2023-06-26T18:09:02.748Z,9.02
2023-06-26T18:14:14.666Z,12.73
2023-06-26T18:24:42.822Z,5.47
2023-06-26T18:30:00.034Z,10.00
2023-06-26T18:35:14.801Z,7.73
2023-06-26T18:40:43.646Z,8.27
2023-06-26T18:45:52.893Z,7.97
2023-06-26T18:51:22.810Z,9.60
2023-06-26T18:56:34.596Z,7.05
2023-06-26T19:02:23.714Z,8.07
2023-06-26T19:07:34.702Z,6.10
2023-06-26T19:13:07.314Z,6.88
2023-06-26T19:18:30.552Z,6.60
2023-06-26T19:23:48.028Z,7.20
2023-06-26T19:29:06.319Z,8.30
2023-06-26T19:34:34.046Z,7.95
2023-06-26T19:39:43.095Z,7.07
2023-06-26T19:44:55.300Z,6.87
2023-06-26T19:55:55.166Z,5.93
2023-06-26T20:17:29.897Z,6.57
2023-06-26T20:22:48.005Z,6.83
2023-06-26T20:27:58.248Z,7.90
2023-06-26T20:49:33.920Z,11.73
2023-06-26T20:55:11.285Z,7.07
2023-06-26T21:00:29.288Z,7.40
2023-06-26T21:06:02.942Z,7.22
2023-06-26T21:11:12.672Z,8.70
2023-06-26T21:16:21.354Z,7.37
2023-06-26T21:22:02.980Z,6.60
2023-06-26T21:32:38.137Z,6.90
2023-06-26T21:38:16.319Z,6.18
2023-06-26T21:43:33.760Z,6.38
2023-06-26T21:48:50.931Z,8.10
2023-06-26T21:53:59.091Z,5.97
2023-06-26T21:59:19.036Z,8.07
2023-06-26T22:04:36.177Z,5.90
2023-06-26T22:09:48.983Z,6.13
2023-06-26T22:15:06.423Z,6.80
2023-06-26T22:20:22.637Z,6.47
2023-06-26T22:25:56.281Z,6.07
2023-06-26T22:31:10.356Z,6.10
2023-06-26T22:36:22.250Z,6.00
2023-06-26T22:41:39.155Z,6.47
2023-06-26T22:47:01.164Z,7.00
2023-06-26T22:52:13.713Z,6.70
2023-06-26T23:03:11.464Z,6.37
2023-06-26T23:08:23.255Z,6.82
2023-06-26T23:13:56.242Z,7.93
2023-06-26T23:19:11.907Z,8.50
2023-06-26T23:24:22.647Z,7.38
2023-06-26T23:29:52.925Z,6.32
2023-06-26T23:35:15.179Z,5.67
2023-06-26T23:40:19.372Z,7.40
2023-06-26T23:45:26.121Z,7.10
